Time;durP1;ratioP1;P1;durP2;ratioP2;P2;SDS_P1;SDS_P2;PMS_P1;PMS_P2;Temp;Humidity;BMP_temperature;BMP_pressure;BME280_temperature;BME280_humidity;BME280_pressure;Samples;Min_cycle;Max_cycle;Signal;HPM_P1;HPM_P2
2022/02/20 00:02:09;;;;;;;3.63;1.60;;;2.30;99.90;;;;;;5093421;28;20179;-77
2022/02/20 00:04:36;;;;;;;5.23;1.83;;;2.40;99.90;;;;;;5093058;28;20168;-77
2022/02/20 00:07:02;;;;;;;5.63;2.27;;;2.50;99.90;;;;;;5094444;28;20458;-78
2022/02/20 00:09:28;;;;;;;4.83;1.70;;;2.60;99.90;;;;;;5094508;28;20456;-77
2022/02/20 00:11:53;;;;;;;6.57;2.07;;;2.60;99.90;;;;;;5093616;28;20402;-78
2022/02/20 00:14:19;;;;;;;1.27;1.17;;;2.60;99.90;;;;;;5093354;28;20594;-78
2022/02/20 00:16:45;;;;;;;2.40;1.43;;;2.70;99.90;;;;;;5094494;28;20209;-77
2022/02/20 00:19:10;;;;;;;3.97;1.67;;;2.70;99.90;;;;;;5092660;28;20196;-76
2022/02/20 00:21:36;;;;;;;2.83;1.53;;;3.00;99.90;;;;;;5094349;28;20203;-76
2022/02/20 00:24:02;;;;;;;1.40;1.30;;;3.00;99.90;;;;;;5093378;28;20191;-76
2022/02/20 00:26:28;;;;;;;1.20;0.90;;;3.00;99.90;;;;;;5094890;28;20290;-76
2022/02/20 00:28:53;;;;;;;3.43;1.20;;;3.10;99.90;;;;;;5093938;28;20176;-77
2022/02/20 00:31:19;;;;;;;4.47;1.70;;;3.10;99.90;;;;;;5092890;28;20621;-77
2022/02/20 00:33:44;;;;;;;2.23;1.53;;;3.10;99.90;;;;;;5094585;28;20176;-77
2022/02/20 00:36:10;;;;;;;3.53;1.50;;;3.20;99.90;;;;;;5094053;28;20184;-77
2022/02/20 00:38:36;;;;;;;2.00;1.40;;;3.20;99.90;;;;;;5094325;28;20515;-78
2022/02/20 00:41:01;;;;;;;3.67;1.40;;;3.30;99.90;;;;;;5094477;28;20206;-78
2022/02/20 00:43:27;;;;;;;3.63;1.30;;;3.30;99.90;;;;;;5094711;28;20259;-77
2022/02/20 00:45:53;;;;;;;4.10;1.27;;;3.30;99.90;;;;;;5094553;28;20253;-78
2022/02/20 00:48:20;;;;;;;10.33;2.20;;;3.40;99.90;;;;;;5095554;28;20221;-77
2022/02/20 00:50:49;;;;;;;2.07;1.57;;;3.30;99.90;;;;;;5097786;28;20351;-77
2022/02/20 00:53:16;;;;;;;1.40;1.30;;;3.30;99.90;;;;;;5098931;28;20193;-77
2022/02/20 00:55:42;;;;;;;1.07;0.97;;;3.40;99.90;;;;;;5099665;28;20204;-77
2022/02/20 00:58:08;;;;;;;4.63;1.30;;;3.40;99.90;;;;;;5097615;28;20544;-77
2022/02/20 01:00:35;;;;;;;1.27;1.10;;;3.40;99.90;;;;;;5098430;28;20226;-78
2022/02/20 01:03:01;;;;;;;4.87;1.80;;;3.40;99.90;;;;;;5102184;28;20234;-78
2022/02/20 01:05:26;;;;;;;2.10;1.33;;;3.50;99.90;;;;;;5097328;28;20224;-80
2022/02/20 01:07:52;;;;;;;3.27;1.33;;;3.50;99.90;;;;;;5098239;28;20255;-77
2022/02/20 01:10:19;;;;;;;5.37;1.67;;;3.60;99.90;;;;;;5098022;28;20630;-77
2022/02/20 01:12:45;;;;;;;2.17;1.20;;;3.60;99.90;;;;;;5097983;28;20176;-77
2022/02/20 01:15:13;;;;;;;2.77;1.50;;;3.70;99.90;;;;;;5096254;28;20186;-77
2022/02/20 01:17:39;;;;;;;1.00;0.90;;;3.60;99.90;;;;;;5098286;28;20265;-78
2022/02/20 01:20:06;;;;;;;2.63;1.60;;;3.60;99.90;;;;;;5098465;28;20237;-78
2022/02/20 01:22:31;;;;;;;3.80;1.60;;;4.40;99.90;;;;;;5097092;28;20224;-78
2022/02/20 01:24:57;;;;;;;3.23;1.53;;;3.60;99.90;;;;;;5097516;28;20623;-76
2022/02/20 01:27:23;;;;;;;2.53;1.60;;;3.60;99.90;;;;;;5098432;28;20510;-78
2022/02/20 01:29:49;;;;;;;2.87;1.80;;;3.60;99.90;;;;;;5101161;28;20250;-80
2022/02/20 01:32:15;;;;;;;4.17;1.77;;;3.50;99.90;;;;;;5109769;28;20171;-77
2022/02/20 01:34:41;;;;;;;2.50;1.53;;;3.60;99.90;;;;;;5103600;28;20178;-78
2022/02/20 01:37:07;;;;;;;3.13;1.37;;;3.60;99.90;;;;;;5101406;28;20234;-78
2022/02/20 01:39:33;;;;;;;2.33;1.07;;;3.50;99.90;;;;;;5101662;28;20198;-78
2022/02/20 01:41:59;;;;;;;2.97;1.50;;;3.50;99.90;;;;;;5101599;28;20193;-78
2022/02/20 01:44:24;;;;;;;7.23;1.10;;;3.50;99.90;;;;;;5100592;28;20519;-78
2022/02/20 01:46:59;;;;;;;0.97;0.70;;;3.50;99.90;;;;;;5098222;28;20546;-78
2022/02/20 01:49:25;;;;;;;1.30;1.03;;;3.60;99.90;;;;;;5099598;28;20195;-77
2022/02/20 01:51:51;;;;;;;2.67;1.03;;;3.60;99.90;;;;;;5104454;28;20406;-77
2022/02/20 01:54:16;;;;;;;2.67;1.43;;;3.60;99.90;;;;;;5098228;28;20251;-78
2022/02/20 01:56:43;;;;;;;2.70;1.23;;;3.60;99.90;;;;;;5097540;28;20634;-79
2022/02/20 01:59:08;;;;;;;2.87;1.40;;;3.60;99.90;;;;;;5101453;28;20291;-78
2022/02/20 02:01:34;;;;;;;2.47;1.27;;;3.50;99.90;;;;;;5106607;28;20479;-77
2022/02/20 02:04:02;;;;;;;2.10;1.57;;;3.50;99.90;;;;;;5101923;28;20193;-78
2022/02/20 02:06:31;;;;;;;1.37;1.27;;;3.50;99.90;;;;;;5098177;28;20242;-77
2022/02/20 02:08:58;;;;;;;2.87;1.60;;;3.50;99.90;;;;;;5095944;28;20418;-77
2022/02/20 02:11:24;;;;;;;6.00;1.53;;;3.50;99.90;;;;;;5097173;28;20452;-78
2022/02/20 02:13:50;;;;;;;3.40;1.47;;;3.60;99.90;;;;;;5096201;28;20181;-77
2022/02/20 02:16:16;;;;;;;4.60;1.70;;;3.60;99.70;;;;;;5098501;28;20816;-78
2022/02/20 02:18:42;;;;;;;3.50;1.40;;;3.60;98.90;;;;;;5098765;28;20180;-78
2022/02/20 02:21:08;;;;;;;3.30;1.23;;;3.60;98.90;;;;;;5096784;28;20205;-78
2022/02/20 02:23:34;;;;;;;1.30;1.20;;;3.50;99.60;;;;;;5097449;28;20177;-78
2022/02/20 02:25:59;;;;;;;2.07;1.67;;;3.40;99.90;;;;;;5095112;28;20468;-78
2022/02/20 02:28:26;;;;;;;1.10;1.07;;;3.30;99.90;;;;;;5096347;28;20168;-77
2022/02/20 02:30:52;;;;;;;1.40;1.30;;;3.20;99.90;;;;;;5096046;28;20665;-79
2022/02/20 02:33:28;;;;;;;3.63;1.13;;;3.20;99.90;;;;;;5096932;28;20417;-78
2022/02/20 02:35:53;;;;;;;1.53;1.43;;;3.00;99.90;;;;;;5096857;28;20176;-78
2022/02/20 02:38:25;;;;;;;2.07;1.37;;;2.80;99.90;;;;;;5096198;28;20509;-78
2022/02/20 02:40:51;;;;;;;2.80;1.37;;;2.80;99.90;;;;;;5096502;28;20246;-77
2022/02/20 02:43:17;;;;;;;2.27;1.40;;;2.60;99.90;;;;;;5097197;28;20559;-77
2022/02/20 02:45:42;;;;;;;2.30;1.63;;;2.70;99.90;;;;;;5096663;28;20457;-77
2022/02/20 02:48:08;;;;;;;2.13;1.63;;;2.70;99.90;;;;;;5096736;28;20626;-78
2022/02/20 02:50:34;;;;;;;2.87;1.40;;;2.60;99.90;;;;;;5098719;28;20199;-78
2022/02/20 02:52:59;;;;;;;1.73;1.53;;;3.00;99.90;;;;;;5095547;28;20176;-78
2022/02/20 02:55:25;;;;;;;3.07;1.33;;;3.10;99.90;;;;;;5095428;28;20184;-78
2022/02/20 02:57:50;;;;;;;5.10;1.43;;;2.60;99.90;;;;;;5096095;28;20263;-78
2022/02/20 03:00:16;;;;;;;3.33;1.50;;;2.60;99.90;;;;;;5095529;28;20290;-78
2022/02/20 03:02:43;;;;;;;1.30;1.20;;;2.60;99.90;;;;;;5097575;28;20637;-78
2022/02/20 03:05:09;;;;;;;1.20;1.10;;;2.60;99.90;;;;;;5095913;28;20225;-78
2022/02/20 03:07:34;;;;;;;3.33;1.40;;;2.60;99.90;;;;;;5097536;28;20406;-78
2022/02/20 03:10:00;;;;;;;2.70;1.37;;;;;;;;;;5095334;28;20715;-78
2022/02/20 03:12:26;;;;;;;2.40;1.67;;;2.60;99.90;;;;;;5095643;28;20179;-77
2022/02/20 03:14:52;;;;;;;2.47;1.30;;;2.70;99.90;;;;;;5097329;28;20406;-78
2022/02/20 03:17:17;;;;;;;1.53;1.43;;;2.70;99.90;;;;;;5095438;28;20168;-77
2022/02/20 03:19:43;;;;;;;6.80;1.40;;;2.70;99.90;;;;;;5095276;28;20210;-78
2022/02/20 03:22:08;;;;;;;1.53;1.43;;;2.90;99.90;;;;;;5094659;28;20179;-78
2022/02/20 03:24:34;;;;;;;2.10;1.30;;;3.00;99.90;;;;;;5095111;28;20172;-78
2022/02/20 03:27:00;;;;;;;4.90;1.50;;;2.90;99.90;;;;;;5095146;28;20681;-78
2022/02/20 03:29:25;;;;;;;1.77;1.20;;;3.00;99.90;;;;;;5095213;28;20192;-77
2022/02/20 03:31:51;;;;;;;2.40;1.43;;;3.00;99.90;;;;;;5095060;28;20656;-78
2022/02/20 03:34:17;;;;;;;2.63;1.70;;;3.10;99.90;;;;;;5095026;28;20717;-77
2022/02/20 03:36:42;;;;;;;1.77;1.47;;;3.10;99.90;;;;;;5095068;28;20176;-78
2022/02/20 03:39:08;;;;;;;2.10;1.13;;;3.20;99.90;;;;;;5095009;28;20622;-77
2022/02/20 03:41:33;;;;;;;5.13;1.43;;;3.20;99.90;;;;;;5095095;28;20176;-77
2022/02/20 03:43:59;;;;;;;1.90;1.50;;;3.20;99.90;;;;;;5094361;28;20187;-77
2022/02/20 03:46:25;;;;;;;2.47;1.53;;;3.20;99.90;;;;;;5094791;28;20203;-78
2022/02/20 03:48:50;;;;;;;1.20;1.10;;;3.10;99.90;;;;;;5094855;28;20634;-78
2022/02/20 03:51:16;;;;;;;1.87;1.27;;;3.10;99.90;;;;;;5094557;28;20168;-78
2022/02/20 03:53:42;;;;;;;2.17;1.60;;;3.10;99.90;;;;;;5094225;28;20614;-78
2022/02/20 03:56:08;;;;;;;2.83;1.20;;;3.10;99.90;;;;;;5094840;28;20194;-78
2022/02/20 03:58:33;;;;;;;1.40;1.30;;;3.10;99.90;;;;;;5094890;28;20165;-78
2022/02/20 04:00:59;;;;;;;2.50;1.50;;;3.20;99.90;;;;;;5094373;28;20605;-78
2022/02/20 04:03:25;;;;;;;1.43;1.00;;;3.20;99.90;;;;;;5094534;28;20181;-77
2022/02/20 04:05:50;;;;;;;2.13;1.67;;;3.10;99.90;;;;;;5093928;28;20245;-76
2022/02/20 04:08:16;;;;;;;1.53;1.43;;;3.10;99.90;;;;;;5093832;28;20321;-77
2022/02/20 04:10:42;;;;;;;3.90;1.50;;;3.10;99.90;;;;;;5093315;28;20712;-76
2022/02/20 04:13:07;;;;;;;3.43;1.57;;;3.10;99.90;;;;;;5095115;28;20172;-77
2022/02/20 04:15:33;;;;;;;3.03;1.30;;;3.00;99.90;;;;;;5097790;28;20177;-78
2022/02/20 04:17:59;;;;;;;3.40;1.70;;;3.00;99.90;;;;;;5093047;28;20203;-78
2022/02/20 04:20:24;;;;;;;1.57;1.47;;;3.00;99.90;;;;;;5093633;28;20638;-77
2022/02/20 04:22:50;;;;;;;1.40;1.30;;;3.00;99.90;;;;;;5107275;28;20249;-78
2022/02/20 04:25:16;;;;;;;2.57;1.33;;;3.00;99.90;;;;;;5097269;28;20183;-78
2022/02/20 04:27:43;;;;;;;1.30;1.20;;;3.00;99.90;;;;;;5099038;28;20168;-78
2022/02/20 04:30:10;;;;;;;3.63;2.07;;;3.00;99.90;;;;;;5098067;28;20665;-78
2022/02/20 04:32:36;;;;;;;1.67;1.40;;;3.00;99.90;;;;;;5099226;28;20402;-78
2022/02/20 04:35:04;;;;;;;2.27;1.37;;;3.60;99.90;;;;;;5099575;28;20402;-78
2022/02/20 04:37:29;;;;;;;3.37;1.47;;;3.00;99.90;;;;;;5098201;28;20444;-77
2022/02/20 04:39:55;;;;;;;2.03;1.40;;;3.00;99.90;;;;;;5097760;28;20426;-78
2022/02/20 04:42:21;;;;;;;5.37;1.60;;;3.00;99.90;;;;;;5097707;28;20176;-77
2022/02/20 04:44:46;;;;;;;2.87;1.30;;;2.90;99.90;;;;;;5098272;28;20192;-78
2022/02/20 04:47:12;;;;;;;2.33;1.53;;;2.90;99.90;;;;;;5098771;28;20200;-78
2022/02/20 04:49:37;;;;;;;4.23;1.60;;;3.00;99.90;;;;;;5098063;28;20236;-78
2022/02/20 04:52:03;;;;;;;1.40;1.30;;;3.00;99.90;;;;;;5097755;28;20248;-78
2022/02/20 04:54:29;;;;;;;2.40;1.40;;;3.00;99.90;;;;;;5096517;28;20176;-78
2022/02/20 04:56:55;;;;;;;3.37;1.43;;;3.20;99.90;;;;;;5097301;28;20417;-78
2022/02/20 04:59:21;;;;;;;1.97;1.33;;;3.00;99.90;;;;;;5097276;28;20202;-77
2022/02/20 05:01:47;;;;;;;2.77;1.30;;;3.10;99.90;;;;;;5099470;28;20573;-78
2022/02/20 05:04:13;;;;;;;2.77;1.60;;;3.10;99.90;;;;;;5097305;28;20164;-78
2022/02/20 05:06:38;;;;;;;5.53;1.70;;;3.10;99.90;;;;;;5098993;28;20386;-79
2022/02/20 05:09:04;;;;;;;2.23;1.20;;;3.10;99.90;;;;;;5097949;28;20186;-77
2022/02/20 05:11:30;;;;;;;3.07;1.50;;;3.10;99.90;;;;;;5099095;28;20175;-78
2022/02/20 05:13:58;;;;;;;1.43;1.30;;;3.10;99.90;;;;;;5097676;28;20172;-78
2022/02/20 05:16:26;;;;;;;2.53;1.60;;;3.10;99.90;;;;;;5096970;28;20583;-78
2022/02/20 05:18:52;;;;;;;3.17;1.17;;;3.10;99.90;;;;;;5097936;28;20908;-78
2022/02/20 05:21:18;;;;;;;2.50;1.10;;;3.10;99.90;;;;;;5096312;28;20465;-80
2022/02/20 05:23:44;;;;;;;2.60;1.50;;;3.10;99.90;;;;;;5098403;28;20418;-79
2022/02/20 05:26:12;;;;;;;1.30;1.20;;;3.10;99.90;;;;;;5097628;28;20986;-78
2022/02/20 05:28:38;;;;;;;2.37;1.50;;;3.10;99.90;;;;;;5101948;28;20479;-78
2022/02/20 05:31:04;;;;;;;2.40;1.40;;;3.10;99.90;;;;;;5098019;28;20492;-77
2022/02/20 05:33:29;;;;;;;1.90;1.17;;;3.10;99.90;;;;;;5096824;28;20168;-78
2022/02/20 05:35:55;;;;;;;1.60;1.50;;;3.10;99.90;;;;;;5096354;28;20187;-79
2022/02/20 05:38:21;;;;;;;1.90;1.53;;;3.20;99.90;;;;;;5095820;28;20176;-78
2022/02/20 05:40:47;;;;;;;4.37;1.53;;;;;;;;;;5097462;28;20245;-78
2022/02/20 05:43:12;;;;;;;2.30;1.50;;;3.10;99.90;;;;;;5095872;28;20168;-78
2022/02/20 05:45:38;;;;;;;3.07;1.60;;;3.10;99.90;;;;;;5100274;28;20613;-80
2022/02/20 05:48:04;;;;;;;2.63;1.30;;;3.10;99.90;;;;;;5097665;28;20164;-78
2022/02/20 05:50:30;;;;;;;3.00;1.70;;;3.10;99.90;;;;;;5095124;28;20196;-78
2022/02/20 05:52:56;;;;;;;0.90;0.90;;;3.20;99.90;;;;;;5097439;28;20414;-78
2022/02/20 05:55:23;;;;;;;1.63;1.47;;;3.10;99.90;;;;;;5095746;28;20199;-78
2022/02/20 05:57:51;;;;;;;11.80;9.13;;;3.10;99.90;;;;;;5095131;28;20418;-78
2022/02/20 06:00:21;;;;;;;2.30;1.50;;;3.20;99.90;;;;;;5097950;28;20915;-79
2022/02/20 06:02:47;;;;;;;1.60;1.43;;;3.10;99.90;;;;;;5096486;28;20509;-78
2022/02/20 06:05:13;;;;;;;4.37;1.70;;;3.20;99.90;;;;;;5097613;28;20972;-79
2022/02/20 06:07:39;;;;;;;2.97;1.93;;;3.20;99.90;;;;;;5094778;28;20183;-77
2022/02/20 06:10:07;;;;;;;2.00;1.80;;;3.20;99.90;;;;;;5095809;28;20426;-78
2022/02/20 06:12:33;;;;;;;3.83;2.00;;;3.20;99.90;;;;;;5095848;28;20178;-78
2022/02/20 06:14:59;;;;;;;4.47;1.37;;;3.20;99.90;;;;;;5095016;28;20489;-79
2022/02/20 06:17:24;;;;;;;1.20;1.10;;;3.20;99.90;;;;;;5096453;28;20832;-77
2022/02/20 06:19:50;;;;;;;3.30;1.53;;;3.20;99.90;;;;;;5095955;28;20195;-78
2022/02/20 06:22:16;;;;;;;4.13;2.70;;;3.20;99.90;;;;;;5096125;28;20182;-78
2022/02/20 06:24:42;;;;;;;1.80;1.63;;;3.10;99.90;;;;;;5096529;28;20160;-78
2022/02/20 06:27:08;;;;;;;3.00;1.30;;;3.20;99.90;;;;;;5094825;28;20206;-78
2022/02/20 06:29:34;;;;;;;3.87;1.93;;;3.20;99.90;;;;;;5094686;28;20275;-78
2022/02/20 06:32:00;;;;;;;2.40;1.47;;;3.20;99.90;;;;;;5095691;28;20411;-77
2022/02/20 06:34:26;;;;;;;1.30;1.20;;;3.30;99.90;;;;;;5096645;28;20249;-78
2022/02/20 06:36:52;;;;;;;5.73;1.57;;;3.20;99.90;;;;;;5097244;28;20460;-78
2022/02/20 06:39:18;;;;;;;4.63;1.80;;;3.30;99.90;;;;;;5095664;28;20271;-78
2022/02/20 06:41:43;;;;;;;8.23;2.37;;;3.30;99.90;;;;;;5094541;28;20172;-78
2022/02/20 06:44:09;;;;;;;3.83;1.90;;;3.30;99.90;;;;;;5094619;28;20296;-78
2022/02/20 06:46:36;;;;;;;2.40;1.40;;;3.20;99.90;;;;;;5094946;28;20689;-77
2022/02/20 06:49:02;;;;;;;7.30;1.70;;;3.30;99.90;;;;;;5096664;28;20634;-77
2022/02/20 06:51:28;;;;;;;1.67;1.33;;;3.30;99.90;;;;;;5094609;28;20411;-78
2022/02/20 06:53:54;;;;;;;2.37;1.60;;;3.30;99.90;;;;;;5093673;28;20471;-77
2022/02/20 06:56:20;;;;;;;4.43;2.03;;;3.40;99.90;;;;;;5095209;28;20222;-78
2022/02/20 06:58:46;;;;;;;5.50;1.47;;;;;;;;;;5096914;28;20415;-79
2022/02/20 07:01:12;;;;;;;1.87;1.57;;;3.40;99.90;;;;;;5094603;28;20184;-76
2022/02/20 07:03:37;;;;;;;5.43;1.43;;;3.50;99.90;;;;;;5095267;28;20479;-78
2022/02/20 07:06:04;;;;;;;2.57;1.77;;;3.50;99.90;;;;;;5093398;28;20215;-78
2022/02/20 07:08:30;;;;;;;2.03;1.83;;;3.50;99.90;;;;;;5094897;28;20211;-78
2022/02/20 07:10:56;;;;;;;4.47;1.70;;;3.50;99.90;;;;;;5093637;28;20438;-77
2022/02/20 07:13:22;;;;;;;5.83;1.47;;;;;;;;;;5093979;28;20406;-78
2022/02/20 07:15:48;;;;;;;2.20;1.37;;;3.60;99.90;;;;;;5093495;28;20187;-77
2022/02/20 07:18:15;;;;;;;1.67;1.07;;;3.70;99.90;;;;;;5094331;28;20950;-78
2022/02/20 07:20:42;;;;;;;1.60;1.23;;;3.70;99.90;;;;;;5095337;28;20227;-78
2022/02/20 07:23:08;;;;;;;2.63;1.60;;;3.70;99.90;;;;;;5095441;28;20518;-78
2022/02/20 07:25:34;;;;;;;2.87;1.70;;;3.80;99.90;;;;;;5097592;28;20461;-80
2022/02/20 07:27:59;;;;;;;5.03;1.30;;;3.80;99.90;;;;;;5104282;28;20784;-80
2022/02/20 07:30:28;;;;;;;2.77;1.43;;;3.90;99.90;;;;;;5099358;28;20595;-79
2022/02/20 07:32:54;;;;;;;3.63;1.50;;;3.90;99.90;;;;;;5095559;28;20188;-78
2022/02/20 07:35:20;;;;;;;1.50;1.40;;;4.00;99.90;;;;;;5095560;28;20421;-79
2022/02/20 07:37:46;;;;;;;5.17;1.90;;;4.20;99.90;;;;;;5097276;28;20410;-79
2022/02/20 07:40:11;;;;;;;3.60;1.57;;;4.10;99.90;;;;;;5098255;28;20269;-80
2022/02/20 07:42:37;;;;;;;3.83;1.60;;;4.20;99.90;;;;;;5098303;28;20207;-78
2022/02/20 07:45:04;;;;;;;5.20;1.67;;;4.20;99.90;;;;;;5099086;28;20226;-79
2022/02/20 07:47:31;;;;;;;3.47;1.60;;;4.40;99.90;;;;;;5097961;28;20308;-78
2022/02/20 07:49:56;;;;;;;2.50;1.40;;;4.30;99.90;;;;;;5096222;28;20457;-78
2022/02/20 07:52:23;;;;;;;5.27;1.60;;;4.40;99.90;;;;;;5099399;28;20446;-78
2022/02/20 07:54:49;;;;;;;1.50;1.23;;;4.50;99.90;;;;;;5093443;28;20172;-78
2022/02/20 07:57:15;;;;;;;3.10;2.47;;;4.50;99.90;;;;;;5098137;28;20805;-78
2022/02/20 07:59:41;;;;;;;1.73;1.23;;;4.50;99.90;;;;;;5098513;28;20337;-81
2022/02/20 08:02:07;;;;;;;3.20;1.50;;;4.50;99.90;;;;;;5099181;28;20622;-79
2022/02/20 08:04:33;;;;;;;2.73;1.60;;;4.40;99.90;;;;;;5097522;28;20160;-82
2022/02/20 08:07:03;;;;;;;4.57;1.83;;;4.40;99.90;;;;;;5099999;28;20480;-79
2022/02/20 08:09:29;;;;;;;1.87;1.30;;;4.40;99.90;;;;;;5097426;28;20438;-78
2022/02/20 08:11:55;;;;;;;1.80;1.43;;;4.40;99.90;;;;;;5094972;28;20629;-77
2022/02/20 08:14:20;;;;;;;2.77;1.47;;;4.40;99.90;;;;;;5098824;28;20674;-79
2022/02/20 08:16:46;;;;;;;3.97;1.87;;;4.40;99.90;;;;;;5097405;28;20695;-79
2022/02/20 08:19:12;;;;;;;5.47;1.97;;;4.40;99.90;;;;;;5102126;28;20191;-79
2022/02/20 08:21:38;;;;;;;2.60;1.50;;;4.40;99.90;;;;;;5104349;28;20176;-79
2022/02/20 08:24:04;;;;;;;3.13;1.57;;;4.50;99.90;;;;;;5097416;28;20168;-77
2022/02/20 08:26:29;;;;;;;4.30;1.40;;;4.40;99.90;;;;;;5094546;28;20454;-76
2022/02/20 08:28:55;;;;;;;2.77;1.40;;;4.50;99.90;;;;;;5092317;28;20168;-78
2022/02/20 08:31:21;;;;;;;4.50;1.60;;;4.40;99.90;;;;;;5093520;28;20535;-78
2022/02/20 08:33:46;;;;;;;1.33;1.20;;;4.60;99.90;;;;;;5093555;28;20594;-77
2022/02/20 08:36:13;;;;;;;1.10;1.00;;;4.60;99.90;;;;;;5096740;28;20191;-80
2022/02/20 08:38:40;;;;;;;4.87;1.50;;;4.50;99.90;;;;;;5093680;28;20183;-77
2022/02/20 08:41:05;;;;;;;2.37;1.53;;;4.60;99.90;;;;;;5096118;28;20431;-79
2022/02/20 08:43:31;;;;;;;2.67;1.57;;;4.60;99.90;;;;;;5096815;28;20226;-80
2022/02/20 08:45:57;;;;;;;1.77;1.30;;;4.70;99.90;;;;;;5096763;28;20207;-79
2022/02/20 08:48:23;;;;;;;6.77;1.50;;;4.70;99.90;;;;;;5096497;28;20184;-82
2022/02/20 08:50:48;;;;;;;3.67;1.50;;;4.80;99.90;;;;;;5094898;28;20598;-81
2022/02/20 08:53:14;;;;;;;3.07;1.50;;;4.90;99.90;;;;;;5098362;28;20207;-79
2022/02/20 08:55:40;;;;;;;1.50;1.40;;;4.90;99.90;;;;;;5096379;28;20204;-79
2022/02/20 08:58:06;;;;;;;5.00;1.50;;;4.90;99.90;;;;;;5094318;28;20173;-79
2022/02/20 09:00:31;;;;;;;9.70;4.17;;;5.00;99.90;;;;;;5093255;28;20234;-78
2022/02/20 09:02:57;;;;;;;7.40;1.93;;;5.20;99.90;;;;;;5093225;28;20188;-75
2022/02/20 09:05:23;;;;;;;4.40;1.80;;;5.30;99.90;;;;;;5091498;28;20196;-76
2022/02/20 09:07:49;;;;;;;2.70;1.47;;;5.40;99.90;;;;;;5092138;28;20187;-79
2022/02/20 09:10:14;;;;;;;1.77;1.10;;;5.40;99.90;;;;;;5097179;28;20196;-75
2022/02/20 09:12:40;;;;;;;2.30;1.40;;;5.40;99.90;;;;;;5097113;28;20187;-75
2022/02/20 09:15:09;;;;;;;1.73;1.10;;;5.60;99.90;;;;;;5112496;28;20184;-76
2022/02/20 09:17:36;;;;;;;1.57;1.00;;;5.50;99.90;;;;;;5115421;28;20187;-76
2022/02/20 09:20:02;;;;;;;3.23;1.47;;;5.60;99.90;;;;;;5115201;28;20240;-76
2022/02/20 09:22:27;;;;;;;2.03;1.37;;;5.90;99.90;;;;;;5106728;28;20684;-77
2022/02/20 09:24:55;;;;;;;1.40;1.20;;;6.10;99.90;;;;;;5095855;28;20198;-76
2022/02/20 09:27:21;;;;;;;2.40;1.73;;;6.40;99.90;;;;;;5096017;28;20262;-76
2022/02/20 09:29:47;;;;;;;1.43;1.10;;;6.70;99.90;;;;;;5094539;28;20235;-76
2022/02/20 09:32:13;;;;;;;4.03;2.03;;;7.20;99.90;;;;;;5096257;28;20180;-75
2022/02/20 09:34:38;;;;;;;1.90;1.13;;;7.30;99.90;;;;;;5094905;28;20186;-75
2022/02/20 09:37:05;;;;;;;3.13;1.40;;;7.70;99.90;;;;;;5096505;28;20262;-76
2022/02/20 09:39:31;;;;;;;2.00;1.10;;;7.80;99.90;;;;;;5095947;28;20184;-75
2022/02/20 09:41:58;;;;;;;2.63;1.27;;;8.30;99.90;;;;;;5096411;28;20214;-76
2022/02/20 09:44:24;;;;;;;1.30;0.80;;;8.30;99.90;;;;;;5095784;28;20172;-76
2022/02/20 09:46:50;;;;;;;1.80;1.30;;;7.60;99.90;;;;;;5096335;28;20207;-76
2022/02/20 09:49:16;;;;;;;1.17;0.73;;;6.80;99.90;;;;;;5095739;28;20242;-76
2022/02/20 09:51:42;;;;;;;0.87;0.60;;;6.80;99.90;;;;;;5096308;28;20640;-76
2022/02/20 09:54:07;;;;;;;2.17;1.10;;;6.70;99.90;;;;;;5096056;28;20230;-76
2022/02/20 09:56:33;;;;;;;1.77;0.90;;;6.80;99.90;;;;;;5095967;28;20219;-77
2022/02/20 09:58:59;;;;;;;1.90;1.10;;;7.70;99.90;;;;;;5096556;28;20183;-77
2022/02/20 10:01:25;;;;;;;3.07;1.10;;;7.70;99.90;;;;;;5094845;28;20180;-77
2022/02/20 10:03:51;;;;;;;2.57;1.37;;;7.80;99.90;;;;;;5094613;28;20225;-77
2022/02/20 10:06:21;;;;;;;1.40;1.10;;;7.90;99.90;;;;;;5094838;28;20219;-77
2022/02/20 10:08:51;;;;;;;1.00;0.80;;;7.40;99.90;;;;;;5094485;28;20537;-76
2022/02/20 10:11:21;;;;;;;2.73;0.97;;;7.40;99.90;;;;;;5096155;28;20174;-77
2022/02/20 10:13:53;;;;;;;1.67;0.90;;;7.20;99.90;;;;;;5096027;28;20183;-77
2022/02/20 10:16:27;;;;;;;2.60;0.70;;;7.00;99.90;;;;;;5096065;28;20163;-77
2022/02/20 10:18:55;;;;;;;1.03;0.80;;;6.90;99.90;;;;;;5095685;28;20176;-76
2022/02/20 10:21:22;;;;;;;2.80;1.30;;;6.90;99.90;;;;;;5093941;28;20184;-76
2022/02/20 10:23:49;;;;;;;2.57;1.10;;;6.90;99.90;;;;;;5095379;28;20183;-77
2022/02/20 10:26:19;;;;;;;1.10;0.90;;;7.30;99.90;;;;;;5060579;28;20282;-76
2022/02/20 10:29:09;;;;;;;1.27;1.00;;;7.20;99.90;;;;;;5075410;28;20173;-75
2022/02/20 10:31:45;;;;;;;2.00;1.67;;;7.70;99.90;;;;;;5074541;28;20180;-75
2022/02/20 10:34:18;;;;;;;2.23;1.10;;;8.00;99.90;;;;;;5075097;28;20212;-76
2022/02/20 10:36:55;;;;;;;2.63;1.40;;;8.50;99.90;;;;;;5075414;28;20505;-77
2022/02/20 10:39:34;;;;;;;1.90;1.00;;;8.90;99.90;;;;;;5073645;28;20200;-77
2022/02/20 10:42:24;;;;;;;4.00;2.00;;;9.50;99.90;;;;;;5073575;28;20183;-77
2022/02/20 10:45:01;;;;;;;1.30;0.80;;;9.30;99.90;;;;;;5074965;28;20184;-77
2022/02/20 10:47:32;;;;;;;4.10;1.00;;;9.90;99.90;;;;;;5074093;28;20323;-77
2022/02/20 10:50:19;;;;;;;1.87;0.80;;;9.70;99.90;;;;;;5075817;28;20207;-78
2022/02/20 10:52:46;;;;;;;1.03;0.77;;;9.50;99.60;;;;;;5073150;28;20185;-77
2022/02/20 10:55:13;;;;;;;1.30;0.73;;;9.60;99.90;;;;;;5074236;28;20259;-79
2022/02/20 10:57:46;;;;;;;0.97;0.70;;;9.80;99.10;;;;;;5077668;28;20530;-77
2022/02/20 11:00:17;;;;;;;3.00;0.97;;;9.70;99.10;;;;;;5073454;28;20292;-78
2022/02/20 11:02:43;;;;;;;2.03;0.97;;;9.60;98.60;;;;;;5074736;28;20177;-77
2022/02/20 11:05:12;;;;;;;3.00;0.87;;;9.70;98.70;;;;;;5073709;28;20227;-78
2022/02/20 11:07:38;;;;;;;2.63;0.70;;;9.40;98.50;;;;;;5074971;28;20197;-77
2022/02/20 11:10:11;;;;;;;2.30;0.97;;;9.30;98.80;;;;;;5074590;28;20217;-77
2022/02/20 11:12:38;;;;;;;2.13;0.90;;;9.30;98.70;;;;;;5073151;28;20169;-77
2022/02/20 11:15:08;;;;;;;1.43;0.70;;;9.50;98.30;;;;;;5074397;28;20223;-77
2022/02/20 11:17:35;;;;;;;2.80;1.20;;;9.30;97.90;;;;;;5074784;28;20520;-76
2022/02/20 11:20:04;;;;;;;1.23;0.90;;;9.40;98.00;;;;;;5074665;28;20201;-78
2022/02/20 11:22:31;;;;;;;0.83;0.80;;;9.70;97.70;;;;;;5078874;28;20237;-78
2022/02/20 11:25:03;;;;;;;1.57;1.00;;;10.00;96.80;;;;;;5074419;28;20177;-77
2022/02/20 11:27:29;;;;;;;3.37;1.00;;;9.90;97.50;;;;;;5075125;28;20197;-78
2022/02/20 11:29:55;;;;;;;1.60;0.70;;;9.90;97.00;;;;;;5074160;28;20197;-78
2022/02/20 11:32:21;;;;;;;2.13;0.93;;;10.30;96.20;;;;;;5073595;28;20185;-78
2022/02/20 11:34:49;;;;;;;2.13;0.83;;;10.30;95.70;;;;;;5076624;28;20177;-78
2022/02/20 11:37:15;;;;;;;1.97;0.90;;;10.70;95.30;;;;;;5074073;28;20561;-78
2022/02/20 11:40:03;;;;;;;0.83;0.73;;;10.40;94.60;;;;;;5074101;28;20203;-77
2022/02/20 11:42:29;;;;;;;2.40;1.00;;;10.30;94.30;;;;;;5074814;28;20519;-78
2022/02/20 11:45:02;;;;;;;1.97;1.00;;;10.30;94.70;;;;;;5075130;28;20177;-78
2022/02/20 11:47:43;;;;;;;0.93;0.77;;;10.20;94.60;;;;;;5074569;28;20262;-78
2022/02/20 11:50:17;;;;;;;2.30;0.90;;;10.50;94.00;;;;;;5081612;28;20208;-76
2022/02/20 11:52:48;;;;;;;0.97;0.90;;;10.40;93.60;;;;;;5088123;28;20172;-79
2022/02/20 11:55:16;;;;;;;2.27;1.17;;;10.70;94.00;;;;;;5081715;28;20169;-80
2022/02/20 11:57:44;;;;;;;2.20;0.90;;;10.70;93.30;;;;;;5084663;28;20192;-78
2022/02/20 12:00:18;;;;;;;0.93;0.83;;;10.50;93.50;;;;;;5082145;28;20193;-79
2022/02/20 12:03:07;;;;;;;3.73;0.80;;;11.00;93.40;;;;;;5078695;28;20172;-78
2022/02/20 12:05:36;;;;;;;4.23;1.03;;;10.90;92.70;;;;;;5082203;28;20188;-79
2022/02/20 12:08:07;;;;;;;2.00;1.10;;;10.80;92.60;;;;;;5081667;28;20191;-78
2022/02/20 12:10:35;;;;;;;2.10;1.03;;;10.60;92.80;;;;;;5078605;28;20215;-78
2022/02/20 12:13:06;;;;;;;1.63;0.90;;;10.40;92.10;;;;;;5077773;28;20191;-78
2022/02/20 12:15:40;;;;;;;2.27;0.70;;;10.20;92.30;;;;;;5078169;28;20180;-79
2022/02/20 12:18:13;;;;;;;1.70;0.70;;;10.10;92.50;;;;;;5075872;28;20539;-79
2022/02/20 12:20:54;;;;;;;1.53;0.87;;;10.00;92.70;;;;;;5078058;28;20219;-78
2022/02/20 12:23:31;;;;;;;1.93;1.20;;;10.60;92.40;;;;;;5086102;28;20173;-79
2022/02/20 12:26:01;;;;;;;2.60;1.17;;;10.50;92.60;;;;;;5084842;28;20197;-78
2022/02/20 12:28:40;;;;;;;1.43;0.90;;;11.00;92.40;;;;;;5078033;28;20183;-78
2022/02/20 12:31:10;;;;;;;2.17;0.90;;;14.50;93.00;;;;;;5078846;28;20189;-78
2022/02/20 12:33:38;;;;;;;1.00;0.80;;;11.60;90.80;;;;;;5079227;28;20185;-80
2022/02/20 12:36:05;;;;;;;1.63;0.90;;;11.70;88.60;;;;;;5077842;28;20189;-79
2022/02/20 12:38:32;;;;;;;1.00;0.90;;;11.70;89.50;;;;;;5079847;28;20181;-79
2022/02/20 12:40:59;;;;;;;1.73;0.80;;;11.80;90.20;;;;;;5078229;28;20592;-78
2022/02/20 12:43:25;;;;;;;1.27;0.70;;;11.80;89.80;;;;;;5079454;28;20184;-78
2022/02/20 12:45:51;;;;;;;1.97;0.80;;;12.20;88.80;;;;;;5082993;28;20197;-79
2022/02/20 12:48:18;;;;;;;1.23;0.83;;;11.70;90.10;;;;;;5083012;28;20174;-79
2022/02/20 12:50:47;;;;;;;1.37;0.60;;;11.70;90.40;;;;;;5080908;28;20195;-79
2022/02/20 12:53:14;;;;;;;1.10;0.60;;;11.90;89.90;;;;;;5080580;28;20171;-79
2022/02/20 12:55:41;;;;;;;1.97;0.80;;;12.60;89.30;;;;;;5080892;28;20191;-79
2022/02/20 12:58:11;;;;;;;0.97;0.53;;;12.20;86.70;;;;;;5079142;28;20186;-78